sensor_id;sensor_type;location;lat;lon;timestamp;temperature;humidity
4985;DHT22;2509;49.902;8.600;2023-07-30T00:01:30;20.90;99.90
4985;DHT22;2509;49.902;8.600;2023-07-30T00:04:34;20.80;99.90
4985;DHT22;2509;49.902;8.600;2023-07-30T00:07:36;20.80;99.90
4985;DHT22;2509;49.902;8.600;2023-07-30T00:10:38;20.70;99.90
4985;DHT22;2509;49.902;8.600;2023-07-30T00:13:39;20.60;99.90
4985;DHT22;2509;49.902;8.600;2023-07-30T00:16:41;20.60;99.90
4985;DHT22;2509;49.902;8.600;2023-07-30T00:19:44;20.60;99.90
4985;DHT22;2509;49.902;8.600;2023-07-30T00:22:46;20.50;99.90
4985;DHT22;2509;49.902;8.600;2023-07-30T00:25:48;20.50;99.90
4985;DHT22;2509;49.902;8.600;2023-07-30T00:28:49;20.50;99.90
4985;DHT22;2509;49.902;8.600;2023-07-30T00:31:51;20.50;99.90
4985;DHT22;2509;49.902;8.600;2023-07-30T00:34:54;20.50;99.90
4985;DHT22;2509;49.902;8.600;2023-07-30T00:37:56;20.50;99.90
4985;DHT22;2509;49.902;8.600;2023-07-30T00:40:57;20.50;99.90
4985;DHT22;2509;49.902;8.600;2023-07-30T00:43:59;20.50;99.90
4985;DHT22;2509;49.902;8.600;2023-07-30T00:47:01;20.50;99.90
4985;DHT22;2509;49.902;8.600;2023-07-30T00:50:06;20.50;99.90
4985;DHT22;2509;49.902;8.600;2023-07-30T00:53:09;20.50;99.90
4985;DHT22;2509;49.902;8.600;2023-07-30T00:56:12;20.50;99.90
4985;DHT22;2509;49.902;8.600;2023-07-30T00:59:14;20.50;99.90
4985;DHT22;2509;49.902;8.600;2023-07-30T01:02:16;20.50;99.90
4985;DHT22;2509;49.902;8.600;2023-07-30T01:05:19;20.50;99.90
4985;DHT22;2509;49.902;8.600;2023-07-30T01:08:21;20.50;99.90
4985;DHT22;2509;49.902;8.600;2023-07-30T01:11:23;20.50;99.90
4985;DHT22;2509;49.902;8.600;2023-07-30T01:14:25;20.50;99.90
4985;DHT22;2509;49.902;8.600;2023-07-30T01:17:27;20.50;99.90
4985;DHT22;2509;49.902;8.600;2023-07-30T01:20:31;20.50;99.90
4985;DHT22;2509;49.902;8.600;2023-07-30T01:23:34;20.50;99.90
4985;DHT22;2509;49.902;8.600;2023-07-30T01:26:40;20.50;99.90
4985;DHT22;2509;49.902;8.600;2023-07-30T01:29:48;20.50;99.90
4985;DHT22;2509;49.902;8.600;2023-07-30T01:32:51;20.40;99.90
4985;DHT22;2509;49.902;8.600;2023-07-30T01:35:55;20.40;99.90
4985;DHT22;2509;49.902;8.600;2023-07-30T01:38:59;20.30;99.90
4985;DHT22;2509;49.902;8.600;2023-07-30T01:42:01;20.30;99.90
4985;DHT22;2509;49.902;8.600;2023-07-30T01:45:04;20.30;99.90
4985;DHT22;2509;49.902;8.600;2023-07-30T01:48:06;20.20;99.90
4985;DHT22;2509;49.902;8.600;2023-07-30T01:51:07;20.10;99.90
4985;DHT22;2509;49.902;8.600;2023-07-30T01:54:10;20.10;99.90
4985;DHT22;2509;49.902;8.600;2023-07-30T01:57:12;20.10;99.90
4985;DHT22;2509;49.902;8.600;2023-07-30T02:00:14;20.10;99.90
4985;DHT22;2509;49.902;8.600;2023-07-30T02:03:16;20.00;99.90
4985;DHT22;2509;49.902;8.600;2023-07-30T02:06:17;20.00;99.90
4985;DHT22;2509;49.902;8.600;2023-07-30T02:09:20;20.00;99.90
4985;DHT22;2509;49.902;8.600;2023-07-30T02:12:22;20.00;99.90
4985;DHT22;2509;49.902;8.600;2023-07-30T02:15:24;19.90;99.90
4985;DHT22;2509;49.902;8.600;2023-07-30T02:18:26;19.90;99.90
4985;DHT22;2509;49.902;8.600;2023-07-30T02:21:27;19.90;99.90
4985;DHT22;2509;49.902;8.600;2023-07-30T02:24:33;19.80;99.90
4985;DHT22;2509;49.902;8.600;2023-07-30T02:27:35;19.80;99.90
4985;DHT22;2509;49.902;8.600;2023-07-30T02:30:37;19.70;99.90
4985;DHT22;2509;49.902;8.600;2023-07-30T02:33:39;19.70;99.90
4985;DHT22;2509;49.902;8.600;2023-07-30T02:36:40;19.60;99.90
4985;DHT22;2509;49.902;8.600;2023-07-30T02:39:43;19.50;99.90
4985;DHT22;2509;49.902;8.600;2023-07-30T02:42:45;19.50;99.90
4985;DHT22;2509;49.902;8.600;2023-07-30T02:45:47;19.60;99.90
4985;DHT22;2509;49.902;8.600;2023-07-30T02:48:49;19.60;99.90
4985;DHT22;2509;49.902;8.600;2023-07-30T02:51:50;19.60;99.90
4985;DHT22;2509;49.902;8.600;2023-07-30T02:54:54;19.60;99.90
4985;DHT22;2509;49.902;8.600;2023-07-30T02:57:55;19.60;99.90
4985;DHT22;2509;49.902;8.600;2023-07-30T03:01:05;19.50;99.90
4985;DHT22;2509;49.902;8.600;2023-07-30T03:04:07;19.50;99.90
4985;DHT22;2509;49.902;8.600;2023-07-30T03:07:09;19.40;99.90
4985;DHT22;2509;49.902;8.600;2023-07-30T03:10:12;19.50;99.90
4985;DHT22;2509;49.902;8.600;2023-07-30T03:13:14;19.50;99.90
4985;DHT22;2509;49.902;8.600;2023-07-30T03:16:16;19.40;99.90
4985;DHT22;2509;49.902;8.600;2023-07-30T03:19:17;19.40;99.90
4985;DHT22;2509;49.902;8.600;2023-07-30T03:22:19;19.40;99.90
4985;DHT22;2509;49.902;8.600;2023-07-30T03:25:22;19.40;99.90
4985;DHT22;2509;49.902;8.600;2023-07-30T03:28:24;19.40;99.90
4985;DHT22;2509;49.902;8.600;2023-07-30T03:31:26;19.40;99.90
4985;DHT22;2509;49.902;8.600;2023-07-30T03:34:28;19.40;99.90
4985;DHT22;2509;49.902;8.600;2023-07-30T03:37:30;19.40;99.90
4985;DHT22;2509;49.902;8.600;2023-07-30T03:40:33;19.40;99.90
4985;DHT22;2509;49.902;8.600;2023-07-30T03:43:35;19.30;99.90
4985;DHT22;2509;49.902;8.600;2023-07-30T03:46:37;19.30;99.90
4985;DHT22;2509;49.902;8.600;2023-07-30T03:49:38;19.40;99.90
4985;DHT22;2509;49.902;8.600;2023-07-30T03:52:40;19.40;99.90
4985;DHT22;2509;49.902;8.600;2023-07-30T03:55:43;19.40;99.90
4985;DHT22;2509;49.902;8.600;2023-07-30T03:58:45;19.40;99.90
4985;DHT22;2509;49.902;8.600;2023-07-30T04:01:47;19.40;99.90
4985;DHT22;2509;49.902;8.600;2023-07-30T04:04:49;19.30;99.90
4985;DHT22;2509;49.902;8.600;2023-07-30T04:07:50;19.40;99.90
4985;DHT22;2509;49.902;8.600;2023-07-30T04:10:53;19.30;99.90
4985;DHT22;2509;49.902;8.600;2023-07-30T04:13:55;19.30;99.90
4985;DHT22;2509;49.902;8.600;2023-07-30T04:16:57;19.30;99.90
4985;DHT22;2509;49.902;8.600;2023-07-30T04:19:59;19.30;99.90
4985;DHT22;2509;49.902;8.600;2023-07-30T04:23:00;19.40;99.90
4985;DHT22;2509;49.902;8.600;2023-07-30T04:26:03;19.30;99.90
4985;DHT22;2509;49.902;8.600;2023-07-30T04:29:05;19.30;99.90
4985;DHT22;2509;49.902;8.600;2023-07-30T04:32:07;19.30;99.90
4985;DHT22;2509;49.902;8.600;2023-07-30T04:35:09;19.30;99.90
4985;DHT22;2509;49.902;8.600;2023-07-30T04:38:11;19.30;99.90
4985;DHT22;2509;49.902;8.600;2023-07-30T04:41:14;19.30;99.90
4985;DHT22;2509;49.902;8.600;2023-07-30T04:44:15;19.30;99.90
4985;DHT22;2509;49.902;8.600;2023-07-30T04:47:17;19.30;99.90
4985;DHT22;2509;49.902;8.600;2023-07-30T04:50:19;19.30;99.90
4985;DHT22;2509;49.902;8.600;2023-07-30T04:53:21;19.30;99.90
4985;DHT22;2509;49.902;8.600;2023-07-30T04:56:24;19.40;99.90
4985;DHT22;2509;49.902;8.600;2023-07-30T04:59:26;19.40;99.90
4985;DHT22;2509;49.902;8.600;2023-07-30T05:02:29;19.40;99.90
4985;DHT22;2509;49.902;8.600;2023-07-30T05:05:31;19.40;99.90
4985;DHT22;2509;49.902;8.600;2023-07-30T05:08:32;19.40;99.90
4985;DHT22;2509;49.902;8.600;2023-07-30T05:11:36;19.40;99.90
4985;DHT22;2509;49.902;8.600;2023-07-30T05:14:37;19.40;99.90
4985;DHT22;2509;49.902;8.600;2023-07-30T05:17:39;19.40;99.90
4985;DHT22;2509;49.902;8.600;2023-07-30T05:20:41;19.40;99.90
4985;DHT22;2509;49.902;8.600;2023-07-30T05:23:42;19.50;99.90
4985;DHT22;2509;49.902;8.600;2023-07-30T05:26:45;19.50;99.90
4985;DHT22;2509;49.902;8.600;2023-07-30T05:29:47;19.50;99.90
4985;DHT22;2509;49.902;8.600;2023-07-30T05:32:49;19.50;99.90
4985;DHT22;2509;49.902;8.600;2023-07-30T05:35:51;19.60;99.90
4985;DHT22;2509;49.902;8.600;2023-07-30T05:38:52;19.60;99.90
4985;DHT22;2509;49.902;8.600;2023-07-30T05:41:55;19.60;99.90
4985;DHT22;2509;49.902;8.600;2023-07-30T05:44:57;19.60;99.90
4985;DHT22;2509;49.902;8.600;2023-07-30T05:47:59;19.70;99.90
4985;DHT22;2509;49.902;8.600;2023-07-30T05:51:00;19.70;99.90
4985;DHT22;2509;49.902;8.600;2023-07-30T05:54:02;19.80;99.90
4985;DHT22;2509;49.902;8.600;2023-07-30T05:57:06;19.90;99.90
4985;DHT22;2509;49.902;8.600;2023-07-30T06:00:08;20.00;99.90
4985;DHT22;2509;49.902;8.600;2023-07-30T06:03:10;20.10;99.90
4985;DHT22;2509;49.902;8.600;2023-07-30T06:06:12;20.20;99.90
4985;DHT22;2509;49.902;8.600;2023-07-30T06:09:14;20.20;99.90
4985;DHT22;2509;49.902;8.600;2023-07-30T06:12:17;20.30;99.90
4985;DHT22;2509;49.902;8.600;2023-07-30T06:15:19;20.30;99.90
4985;DHT22;2509;49.902;8.600;2023-07-30T06:18:20;20.40;99.90
4985;DHT22;2509;49.902;8.600;2023-07-30T06:21:22;20.60;99.90
4985;DHT22;2509;49.902;8.600;2023-07-30T06:24:24;20.70;99.90
4985;DHT22;2509;49.902;8.600;2023-07-30T06:27:27;20.80;99.90
4985;DHT22;2509;49.902;8.600;2023-07-30T06:30:29;20.90;99.90
4985;DHT22;2509;49.902;8.600;2023-07-30T06:33:30;21.00;99.90
4985;DHT22;2509;49.902;8.600;2023-07-30T06:36:32;21.10;99.90
4985;DHT22;2509;49.902;8.600;2023-07-30T06:39:34;21.20;99.90
4985;DHT22;2509;49.902;8.600;2023-07-30T06:42:37;21.20;99.90
4985;DHT22;2509;49.902;8.600;2023-07-30T06:45:39;21.30;99.90
4985;DHT22;2509;49.902;8.600;2023-07-30T06:48:40;21.30;99.90
4985;DHT22;2509;49.902;8.600;2023-07-30T06:51:42;21.30;99.90
4985;DHT22;2509;49.902;8.600;2023-07-30T06:54:44;21.30;99.90
4985;DHT22;2509;49.902;8.600;2023-07-30T06:57:47;21.40;99.90
4985;DHT22;2509;49.902;8.600;2023-07-30T07:00:49;21.50;99.90
4985;DHT22;2509;49.902;8.600;2023-07-30T07:03:50;21.60;99.90
4985;DHT22;2509;49.902;8.600;2023-07-30T07:06:52;21.80;99.90
4985;DHT22;2509;49.902;8.600;2023-07-30T07:09:54;21.90;99.90
4985;DHT22;2509;49.902;8.600;2023-07-30T07:12:57;21.80;99.90
4985;DHT22;2509;49.902;8.600;2023-07-30T07:15:58;21.80;99.90
4985;DHT22;2509;49.902;8.600;2023-07-30T07:19:00;21.80;99.90
4985;DHT22;2509;49.902;8.600;2023-07-30T07:22:03;21.80;99.90
4985;DHT22;2509;49.902;8.600;2023-07-30T07:25:05;21.70;99.90
4985;DHT22;2509;49.902;8.600;2023-07-30T07:28:08;21.60;99.90
4985;DHT22;2509;49.902;8.600;2023-07-30T07:31:10;21.40;99.90
4985;DHT22;2509;49.902;8.600;2023-07-30T07:34:12;21.20;99.90
4985;DHT22;2509;49.902;8.600;2023-07-30T07:37:14;20.90;99.90
4985;DHT22;2509;49.902;8.600;2023-07-30T07:40:17;20.60;99.90
4985;DHT22;2509;49.902;8.600;2023-07-30T07:43:20;20.40;99.90
4985;DHT22;2509;49.902;8.600;2023-07-30T07:46:22;20.20;99.90
4985;DHT22;2509;49.902;8.600;2023-07-30T07:49:24;20.10;99.90
4985;DHT22;2509;49.902;8.600;2023-07-30T07:52:25;20.00;99.90
4985;DHT22;2509;49.902;8.600;2023-07-30T07:55:27;20.00;99.90
4985;DHT22;2509;49.902;8.600;2023-07-30T07:58:31;20.10;99.90
4985;DHT22;2509;49.902;8.600;2023-07-30T08:01:33;20.20;99.90
4985;DHT22;2509;49.902;8.600;2023-07-30T08:04:34;20.20;99.90
4985;DHT22;2509;49.902;8.600;2023-07-30T08:07:36;20.20;99.90
4985;DHT22;2509;49.902;8.600;2023-07-30T08:10:38;20.10;99.90
4985;DHT22;2509;49.902;8.600;2023-07-30T08:13:41;20.20;99.90
4985;DHT22;2509;49.902;8.600;2023-07-30T08:16:43;20.30;99.90
4985;DHT22;2509;49.902;8.600;2023-07-30T08:19:45;20.50;99.90
4985;DHT22;2509;49.902;8.600;2023-07-30T08:22:46;20.60;99.90
4985;DHT22;2509;49.902;8.600;2023-07-30T08:25:48;20.70;99.90
4985;DHT22;2509;49.902;8.600;2023-07-30T08:28:52;20.90;99.90
4985;DHT22;2509;49.902;8.600;2023-07-30T08:31:54;21.00;99.90
4985;DHT22;2509;49.902;8.600;2023-07-30T08:34:55;21.20;99.90
4985;DHT22;2509;49.902;8.600;2023-07-30T08:37:57;21.30;99.90
4985;DHT22;2509;49.902;8.600;2023-07-30T08:40:59;21.40;99.90
4985;DHT22;2509;49.902;8.600;2023-07-30T08:44:02;21.60;99.90
4985;DHT22;2509;49.902;8.600;2023-07-30T08:47:04;21.70;99.90
4985;DHT22;2509;49.902;8.600;2023-07-30T08:50:06;21.80;99.90
4985;DHT22;2509;49.902;8.600;2023-07-30T08:53:08;22.00;99.90
4985;DHT22;2509;49.902;8.600;2023-07-30T08:56:10;22.10;99.90
4985;DHT22;2509;49.902;8.600;2023-07-30T08:59:15;22.30;99.90
4985;DHT22;2509;49.902;8.600;2023-07-30T09:02:20;22.50;99.90
4985;DHT22;2509;49.902;8.600;2023-07-30T09:05:23;22.70;99.90
4985;DHT22;2509;49.902;8.600;2023-07-30T09:08:25;22.70;99.90
4985;DHT22;2509;49.902;8.600;2023-07-30T09:11:26;22.80;99.90
4985;DHT22;2509;49.902;8.600;2023-07-30T09:14:29;22.90;99.90
4985;DHT22;2509;49.902;8.600;2023-07-30T09:17:31;22.80;99.90
4985;DHT22;2509;49.902;8.600;2023-07-30T09:20:37;22.70;99.90
4985;DHT22;2509;49.902;8.600;2023-07-30T09:23:40;22.80;99.90
4985;DHT22;2509;49.902;8.600;2023-07-30T09:26:43;22.90;99.90
4985;DHT22;2509;49.902;8.600;2023-07-30T09:29:51;23.10;99.90
4985;DHT22;2509;49.902;8.600;2023-07-30T09:32:55;23.10;99.90
4985;DHT22;2509;49.902;8.600;2023-07-30T09:35:57;22.90;99.90
4985;DHT22;2509;49.902;8.600;2023-07-30T09:38:59;22.30;99.90
4985;DHT22;2509;49.902;8.600;2023-07-30T09:42:01;21.70;99.90
4985;DHT22;2509;49.902;8.600;2023-07-30T09:45:05;21.10;99.90
4985;DHT22;2509;49.902;8.600;2023-07-30T09:48:08;20.80;99.90
4985;DHT22;2509;49.902;8.600;2023-07-30T09:51:09;20.60;99.90
4985;DHT22;2509;49.902;8.600;2023-07-30T09:54:13;20.50;99.90
4985;DHT22;2509;49.902;8.600;2023-07-30T09:57:15;20.50;99.90
4985;DHT22;2509;49.902;8.600;2023-07-30T10:00:18;20.40;99.90
4985;DHT22;2509;49.902;8.600;2023-07-30T10:03:20;20.50;99.90
4985;DHT22;2509;49.902;8.600;2023-07-30T10:06:23;20.40;99.90
4985;DHT22;2509;49.902;8.600;2023-07-30T10:09:30;20.30;99.90
4985;DHT22;2509;49.902;8.600;2023-07-30T10:12:33;20.40;99.90
4985;DHT22;2509;49.902;8.600;2023-07-30T10:15:38;20.50;99.90
4985;DHT22;2509;49.902;8.600;2023-07-30T10:18:41;20.70;99.90
4985;DHT22;2509;49.902;8.600;2023-07-30T10:21:43;20.80;99.90
4985;DHT22;2509;49.902;8.600;2023-07-30T10:24:56;20.90;99.90
4985;DHT22;2509;49.902;8.600;2023-07-30T10:27:58;21.10;99.90
4985;DHT22;2509;49.902;8.600;2023-07-30T10:31:05;21.20;99.90
4985;DHT22;2509;49.902;8.600;2023-07-30T10:34:09;21.40;99.90
4985;DHT22;2509;49.902;8.600;2023-07-30T10:37:17;21.80;99.90
4985;DHT22;2509;49.902;8.600;2023-07-30T10:40:19;22.20;99.90
4985;DHT22;2509;49.902;8.600;2023-07-30T10:43:21;22.50;99.90
4985;DHT22;2509;49.902;8.600;2023-07-30T10:46:24;22.90;99.90
4985;DHT22;2509;49.902;8.600;2023-07-30T10:49:28;23.10;99.90
4985;DHT22;2509;49.902;8.600;2023-07-30T10:52:30;23.20;99.90
4985;DHT22;2509;49.902;8.600;2023-07-30T10:55:33;23.40;99.90
4985;DHT22;2509;49.902;8.600;2023-07-30T10:58:39;23.80;99.90
4985;DHT22;2509;49.902;8.600;2023-07-30T11:01:45;23.80;99.90
4985;DHT22;2509;49.902;8.600;2023-07-30T11:04:50;23.90;99.90
4985;DHT22;2509;49.902;8.600;2023-07-30T11:07:52;24.00;99.90
4985;DHT22;2509;49.902;8.600;2023-07-30T11:10:54;24.20;99.90
4985;DHT22;2509;49.902;8.600;2023-07-30T11:13:57;24.20;99.90
4985;DHT22;2509;49.902;8.600;2023-07-30T11:17:08;24.30;99.90
4985;DHT22;2509;49.902;8.600;2023-07-30T11:20:22;24.30;99.90
4985;DHT22;2509;49.902;8.600;2023-07-30T11:23:29;24.90;99.90
4985;DHT22;2509;49.902;8.600;2023-07-30T11:26:34;25.50;99.90
4985;DHT22;2509;49.902;8.600;2023-07-30T11:29:36;25.50;99.60
4985;DHT22;2509;49.902;8.600;2023-07-30T11:32:43;25.50;99.80
4985;DHT22;2509;49.902;8.600;2023-07-30T11:35:46;25.70;98.80
4985;DHT22;2509;49.902;8.600;2023-07-30T11:38:51;25.60;99.20
4985;DHT22;2509;49.902;8.600;2023-07-30T11:41:59;25.30;99.90
4985;DHT22;2509;49.902;8.600;2023-07-30T11:45:16;24.70;99.90
4985;DHT22;2509;49.902;8.600;2023-07-30T11:48:24;24.40;99.90
4985;DHT22;2509;49.902;8.600;2023-07-30T11:51:29;24.00;99.90
4985;DHT22;2509;49.902;8.600;2023-07-30T11:58:50;23.50;99.90
4985;DHT22;2509;49.902;8.600;2023-07-30T12:02:20;23.20;99.90
4985;DHT22;2509;49.902;8.600;2023-07-30T12:05:32;23.10;99.90
4985;DHT22;2509;49.902;8.600;2023-07-30T12:08:36;23.20;99.90
4985;DHT22;2509;49.902;8.600;2023-07-30T12:11:45;23.60;99.90
4985;DHT22;2509;49.902;8.600;2023-07-30T12:14:54;23.80;99.00
4985;DHT22;2509;49.902;8.600;2023-07-30T12:17:56;24.00;98.50
4985;DHT22;2509;49.902;8.600;2023-07-30T12:21:00;23.80;96.90
4985;DHT22;2509;49.902;8.600;2023-07-30T12:24:02;23.50;98.10
4985;DHT22;2509;49.902;8.600;2023-07-30T12:27:07;23.50;99.10
4985;DHT22;2509;49.902;8.600;2023-07-30T12:30:14;23.60;99.10
4985;DHT22;2509;49.902;8.600;2023-07-30T12:33:18;23.50;98.60
4985;DHT22;2509;49.902;8.600;2023-07-30T12:36:25;23.70;99.50
4985;DHT22;2509;49.902;8.600;2023-07-30T12:39:27;23.70;98.70
4985;DHT22;2509;49.902;8.600;2023-07-30T12:42:29;23.80;98.20
4985;DHT22;2509;49.902;8.600;2023-07-30T12:45:31;23.90;97.70
4985;DHT22;2509;49.902;8.600;2023-07-30T12:48:33;24.20;96.70
4985;DHT22;2509;49.902;8.600;2023-07-30T12:51:36;25.20;95.20
4985;DHT22;2509;49.902;8.600;2023-07-30T12:54:38;25.90;90.10
4985;DHT22;2509;49.902;8.600;2023-07-30T12:57:40;25.70;90.00
4985;DHT22;2509;49.902;8.600;2023-07-30T13:00:41;25.60;90.90
4985;DHT22;2509;49.902;8.600;2023-07-30T13:03:43;25.10;89.30
4985;DHT22;2509;49.902;8.600;2023-07-30T13:06:48;25.00;89.40
4985;DHT22;2509;49.902;8.600;2023-07-30T13:10:02;25.00;89.20
4985;DHT22;2509;49.902;8.600;2023-07-30T13:13:04;24.90;89.80
4985;DHT22;2509;49.902;8.600;2023-07-30T13:16:06;24.70;90.30
4985;DHT22;2509;49.902;8.600;2023-07-30T13:19:08;24.70;92.00
4985;DHT22;2509;49.902;8.600;2023-07-30T13:22:11;24.70;91.70
4985;DHT22;2509;49.902;8.600;2023-07-30T13:25:13;24.70;93.30
4985;DHT22;2509;49.902;8.600;2023-07-30T13:28:15;24.80;91.10
4985;DHT22;2509;49.902;8.600;2023-07-30T13:31:17;24.60;92.20
4985;DHT22;2509;49.902;8.600;2023-07-30T13:34:19;25.60;91.10
4985;DHT22;2509;49.902;8.600;2023-07-30T13:37:22;26.80;87.80
4985;DHT22;2509;49.902;8.600;2023-07-30T13:40:24;27.30;87.00
4985;DHT22;2509;49.902;8.600;2023-07-30T13:43:26;26.60;87.20
4985;DHT22;2509;49.902;8.600;2023-07-30T13:46:28;25.70;87.30
4985;DHT22;2509;49.902;8.600;2023-07-30T13:49:30;25.30;88.20
4985;DHT22;2509;49.902;8.600;2023-07-30T13:52:33;24.80;89.80
4985;DHT22;2509;49.902;8.600;2023-07-30T13:55:34;24.60;90.60
4985;DHT22;2509;49.902;8.600;2023-07-30T13:58:36;24.50;91.50
4985;DHT22;2509;49.902;8.600;2023-07-30T14:01:40;24.70;91.70
4985;DHT22;2509;49.902;8.600;2023-07-30T14:04:41;24.80;93.20
4985;DHT22;2509;49.902;8.600;2023-07-30T14:07:44;24.80;90.90
4985;DHT22;2509;49.902;8.600;2023-07-30T14:10:46;24.60;91.50
4985;DHT22;2509;49.902;8.600;2023-07-30T14:13:48;24.50;92.10
4985;DHT22;2509;49.902;8.600;2023-07-30T14:16:50;24.30;91.40
4985;DHT22;2509;49.902;8.600;2023-07-30T14:19:52;24.40;92.30
4985;DHT22;2509;49.902;8.600;2023-07-30T14:22:57;24.60;91.50
4985;DHT22;2509;49.902;8.600;2023-07-30T14:26:00;25.00;90.30
4985;DHT22;2509;49.902;8.600;2023-07-30T14:29:02;24.90;91.00
4985;DHT22;2509;49.902;8.600;2023-07-30T14:32:05;24.90;90.40
4985;DHT22;2509;49.902;8.600;2023-07-30T14:35:07;24.70;91.20
4985;DHT22;2509;49.902;8.600;2023-07-30T14:38:11;25.10;90.30
4985;DHT22;2509;49.902;8.600;2023-07-30T14:41:13;26.10;88.90
4985;DHT22;2509;49.902;8.600;2023-07-30T14:44:15;26.60;86.80
4985;DHT22;2509;49.902;8.600;2023-07-30T14:47:20;25.90;87.80
4985;DHT22;2509;49.902;8.600;2023-07-30T14:50:23;25.40;89.90
4985;DHT22;2509;49.902;8.600;2023-07-30T14:53:26;25.20;89.70
4985;DHT22;2509;49.902;8.600;2023-07-30T14:56:28;25.00;90.00
4985;DHT22;2509;49.902;8.600;2023-07-30T14:59:30;25.10;90.60
4985;DHT22;2509;49.902;8.600;2023-07-30T15:02:33;26.10;88.50
4985;DHT22;2509;49.902;8.600;2023-07-30T15:05:36;27.10;86.30
4985;DHT22;2509;49.902;8.600;2023-07-30T15:08:40;27.50;85.60
4985;DHT22;2509;49.902;8.600;2023-07-30T15:11:42;26.80;85.90
4985;DHT22;2509;49.902;8.600;2023-07-30T15:14:44;25.90;87.80
4985;DHT22;2509;49.902;8.600;2023-07-30T15:17:46;25.10;89.10
4985;DHT22;2509;49.902;8.600;2023-07-30T15:20:48;25.30;90.20
4985;DHT22;2509;49.902;8.600;2023-07-30T15:23:52;25.20;90.50
4985;DHT22;2509;49.902;8.600;2023-07-30T15:26:54;25.40;89.40
4985;DHT22;2509;49.902;8.600;2023-07-30T15:29:56;25.10;90.30
4985;DHT22;2509;49.902;8.600;2023-07-30T15:32:58;24.80;91.10
4985;DHT22;2509;49.902;8.600;2023-07-30T15:36:02;25.30;90.20
4985;DHT22;2509;49.902;8.600;2023-07-30T15:39:10;26.00;88.80
4985;DHT22;2509;49.902;8.600;2023-07-30T15:42:15;27.10;87.10
4985;DHT22;2509;49.902;8.600;2023-07-30T15:45:17;27.60;85.30
4985;DHT22;2509;49.902;8.600;2023-07-30T15:48:19;27.70;85.20
4985;DHT22;2509;49.902;8.600;2023-07-30T15:51:21;27.40;84.50
4985;DHT22;2509;49.902;8.600;2023-07-30T15:54:35;26.40;87.00
4985;DHT22;2509;49.902;8.600;2023-07-30T15:57:37;25.80;86.40
4985;DHT22;2509;49.902;8.600;2023-07-30T16:00:39;25.20;87.00
4985;DHT22;2509;49.902;8.600;2023-07-30T16:03:41;25.10;87.30
4985;DHT22;2509;49.902;8.600;2023-07-30T16:06:43;25.20;87.30
4985;DHT22;2509;49.902;8.600;2023-07-30T16:09:46;25.90;86.20
4985;DHT22;2509;49.902;8.600;2023-07-30T16:12:48;26.30;85.60
4985;DHT22;2509;49.902;8.600;2023-07-30T16:15:50;26.40;85.00
4985;DHT22;2509;49.902;8.600;2023-07-30T16:18:52;26.50;84.80
4985;DHT22;2509;49.902;8.600;2023-07-30T16:21:56;26.10;85.80
4985;DHT22;2509;49.902;8.600;2023-07-30T16:24:59;25.80;87.10
4985;DHT22;2509;49.902;8.600;2023-07-30T16:28:01;25.50;88.20
4985;DHT22;2509;49.902;8.600;2023-07-30T16:31:03;25.30;88.80
4985;DHT22;2509;49.902;8.600;2023-07-30T16:34:05;25.00;89.10
4985;DHT22;2509;49.902;8.600;2023-07-30T16:37:07;25.00;89.60
4985;DHT22;2509;49.902;8.600;2023-07-30T16:40:13;25.20;89.30
4985;DHT22;2509;49.902;8.600;2023-07-30T16:43:16;25.10;88.50
4985;DHT22;2509;49.902;8.600;2023-07-30T16:46:20;25.00;89.40
4985;DHT22;2509;49.902;8.600;2023-07-30T16:49:22;24.80;89.30
4985;DHT22;2509;49.902;8.600;2023-07-30T16:52:24;24.40;89.90
4985;DHT22;2509;49.902;8.600;2023-07-30T16:55:32;24.20;90.60
4985;DHT22;2509;49.902;8.600;2023-07-30T16:58:34;24.10;91.70
4985;DHT22;2509;49.902;8.600;2023-07-30T17:01:36;24.00;91.10
4985;DHT22;2509;49.902;8.600;2023-07-30T17:04:38;23.90;91.70
4985;DHT22;2509;49.902;8.600;2023-07-30T17:07:40;23.80;92.00
4985;DHT22;2509;49.902;8.600;2023-07-30T17:10:43;23.60;92.30
4985;DHT22;2509;49.902;8.600;2023-07-30T17:13:45;23.50;92.90
4985;DHT22;2509;49.902;8.600;2023-07-30T17:16:47;23.40;93.50
4985;DHT22;2509;49.902;8.600;2023-07-30T17:19:51;23.40;93.80
4985;DHT22;2509;49.902;8.600;2023-07-30T17:22:53;23.20;94.10
4985;DHT22;2509;49.902;8.600;2023-07-30T17:25:57;23.20;94.60
4985;DHT22;2509;49.902;8.600;2023-07-30T17:29:00;23.00;93.80
4985;DHT22;2509;49.902;8.600;2023-07-30T17:32:02;22.90;94.60
4985;DHT22;2509;49.902;8.600;2023-07-30T17:35:05;22.90;95.30
4985;DHT22;2509;49.902;8.600;2023-07-30T17:38:08;22.80;95.40
4985;DHT22;2509;49.902;8.600;2023-07-30T17:41:11;22.70;95.80
4985;DHT22;2509;49.902;8.600;2023-07-30T17:44:13;22.60;96.30
4985;DHT22;2509;49.902;8.600;2023-07-30T17:47:24;22.60;96.40
4985;DHT22;2509;49.902;8.600;2023-07-30T17:50:26;22.50;96.60
4985;DHT22;2509;49.902;8.600;2023-07-30T17:53:32;22.40;97.00
4985;DHT22;2509;49.902;8.600;2023-07-30T17:56:38;22.40;97.10
4985;DHT22;2509;49.902;8.600;2023-07-30T17:59:42;22.30;97.60
4985;DHT22;2509;49.902;8.600;2023-07-30T18:02:45;22.20;98.30
4985;DHT22;2509;49.902;8.600;2023-07-30T18:05:47;22.20;98.50
4985;DHT22;2509;49.902;8.600;2023-07-30T18:08:49;22.10;98.20
4985;DHT22;2509;49.902;8.600;2023-07-30T18:11:55;22.10;98.90
4985;DHT22;2509;49.902;8.600;2023-07-30T18:15:11;22.00;99.40
4985;DHT22;2509;49.902;8.600;2023-07-30T18:18:13;22.00;99.10
4985;DHT22;2509;49.902;8.600;2023-07-30T18:21:19;21.90;99.60
4985;DHT22;2509;49.902;8.600;2023-07-30T18:24:22;21.90;99.40
4985;DHT22;2509;49.902;8.600;2023-07-30T18:27:26;21.80;99.90
4985;DHT22;2509;49.902;8.600;2023-07-30T18:30:28;21.70;99.90
4985;DHT22;2509;49.902;8.600;2023-07-30T18:33:30;21.70;99.90
4985;DHT22;2509;49.902;8.600;2023-07-30T18:36:34;21.60;99.90
4985;DHT22;2509;49.902;8.600;2023-07-30T18:39:40;21.60;99.90
4985;DHT22;2509;49.902;8.600;2023-07-30T18:42:45;21.50;99.90
4985;DHT22;2509;49.902;8.600;2023-07-30T18:45:48;21.40;99.90
4985;DHT22;2509;49.902;8.600;2023-07-30T18:48:50;21.40;99.90
4985;DHT22;2509;49.902;8.600;2023-07-30T18:51:55;21.30;99.90
4985;DHT22;2509;49.902;8.600;2023-07-30T18:54:57;21.30;99.90
4985;DHT22;2509;49.902;8.600;2023-07-30T18:58:03;21.30;99.90
4985;DHT22;2509;49.902;8.600;2023-07-30T19:01:05;21.20;99.90
4985;DHT22;2509;49.902;8.600;2023-07-30T19:04:08;21.10;99.90
4985;DHT22;2509;49.902;8.600;2023-07-30T19:07:15;21.10;99.90
4985;DHT22;2509;49.902;8.600;2023-07-30T19:10:19;21.00;99.90
4985;DHT22;2509;49.902;8.600;2023-07-30T19:13:22;21.00;99.90
4985;DHT22;2509;49.902;8.600;2023-07-30T19:16:24;20.90;99.90
4985;DHT22;2509;49.902;8.600;2023-07-30T19:19:25;20.80;99.90
4985;DHT22;2509;49.902;8.600;2023-07-30T19:22:28;20.80;99.90
4985;DHT22;2509;49.902;8.600;2023-07-30T19:25:30;20.70;99.90
4985;DHT22;2509;49.902;8.600;2023-07-30T19:28:33;20.70;99.90
4985;DHT22;2509;49.902;8.600;2023-07-30T19:31:37;20.70;99.90
4985;DHT22;2509;49.902;8.600;2023-07-30T19:34:39;20.70;99.90
4985;DHT22;2509;49.902;8.600;2023-07-30T19:37:40;20.60;99.90
4985;DHT22;2509;49.902;8.600;2023-07-30T19:40:42;20.60;99.90
4985;DHT22;2509;49.902;8.600;2023-07-30T19:43:50;20.50;99.90
4985;DHT22;2509;49.902;8.600;2023-07-30T19:46:51;20.50;99.90
4985;DHT22;2509;49.902;8.600;2023-07-30T19:49:53;20.50;99.90
4985;DHT22;2509;49.902;8.600;2023-07-30T19:52:55;20.50;99.90
4985;DHT22;2509;49.902;8.600;2023-07-30T19:55:57;20.50;99.90
4985;DHT22;2509;49.902;8.600;2023-07-30T19:59:00;20.50;99.90